createdAt,value
2018-11-26T00:00:03.432Z,4.32
2018-11-26T00:00:07.739Z,4.32
2018-11-26T00:00:12.042Z,4.31
2018-11-26T00:00:16.355Z,4.3
2018-11-26T00:00:20.669Z,4.31
2018-11-26T00:00:24.979Z,4.32
2018-11-26T00:00:29.286Z,4.31
2018-11-26T00:00:33.593Z,4.29
2018-11-26T00:00:37.988Z,4.3
2018-11-26T00:00:42.301Z,4.31
2018-11-26T00:00:46.612Z,4.3
2018-11-26T00:00:50.925Z,4.31
2018-11-26T00:00:55.237Z,4.3
2018-11-26T00:00:59.544Z,4.31
2018-11-26T00:01:03.955Z,4.3
2018-11-26T00:01:08.262Z,4.3
2018-11-26T00:01:12.574Z,4.3
2018-11-26T00:01:16.888Z,4.31
2018-11-26T00:01:21.196Z,4.3
2018-11-26T00:01:25.502Z,4.3
2018-11-26T00:01:29.806Z,4.3
2018-11-26T00:01:34.127Z,4.31
2018-11-26T00:01:38.433Z,4.32
2018-11-26T00:01:42.761Z,4.32
2018-11-26T00:01:47.070Z,4.31
2018-11-26T00:01:51.390Z,4.31
2018-11-26T00:01:55.747Z,4.31
2018-11-26T00:02:00.061Z,4.31
2018-11-26T00:02:04.369Z,4.31
2018-11-26T00:02:08.681Z,4.3
2018-11-26T00:02:12.990Z,4.31
2018-11-26T00:02:17.301Z,4.31
2018-11-26T00:02:21.608Z,4.3
2018-11-26T00:02:25.917Z,4.31
2018-11-26T00:02:30.224Z,4.32
2018-11-26T00:02:34.530Z,4.31
2018-11-26T00:02:38.846Z,4.31
2018-11-26T00:02:43.163Z,4.3
2018-11-26T00:02:47.473Z,4.3
2018-11-26T00:02:51.789Z,4.31
2018-11-26T00:02:56.092Z,4.3
2018-11-26T00:03:00.399Z,4.3
2018-11-26T00:03:04.710Z,4.31
2018-11-26T00:03:09.019Z,4.29
2018-11-26T00:03:13.340Z,4.29
2018-11-26T00:03:17.670Z,4.3
2018-11-26T00:03:21.972Z,4.32
2018-11-26T00:03:26.272Z,4.31
2018-11-26T00:03:30.573Z,4.3
2018-11-26T00:03:34.891Z,4.31
2018-11-26T00:03:39.201Z,4.32
2018-11-26T00:03:43.512Z,4.31
2018-11-26T00:03:47.824Z,4.32
2018-11-26T00:03:52.137Z,4.31
2018-11-26T00:03:56.444Z,4.32
2018-11-26T00:04:00.752Z,4.31
2018-11-26T00:04:05.124Z,4.32
2018-11-26T00:04:09.446Z,4.32
2018-11-26T00:04:13.754Z,4.32
2018-11-26T00:04:18.057Z,4.32
2018-11-26T00:04:22.356Z,4.32
2018-11-26T00:04:26.655Z,4.32
2018-11-26T00:04:30.969Z,4.32
2018-11-26T00:04:35.273Z,4.33
2018-11-26T00:04:39.577Z,4.32
2018-11-26T00:04:43.890Z,4.32
2018-11-26T00:04:48.243Z,4.33
2018-11-26T00:04:52.556Z,4.34
2018-11-26T00:04:56.861Z,4.34
2018-11-26T00:05:01.163Z,4.33
2018-11-26T00:05:05.574Z,4.34
2018-11-26T00:05:09.872Z,4.34
2018-11-26T00:05:14.221Z,4.34
2018-11-26T00:05:18.529Z,4.34
2018-11-26T00:05:22.840Z,4.33
2018-11-26T00:05:27.153Z,4.33
2018-11-26T00:05:31.464Z,4.34
2018-11-26T00:05:35.771Z,4.33
2018-11-26T00:05:40.076Z,4.34
2018-11-26T00:05:44.386Z,4.34
2018-11-26T00:05:48.713Z,4.34
2018-11-26T00:05:53.017Z,4.34
2018-11-26T00:05:57.230Z,4.34
2018-11-26T00:06:01.538Z,4.34
2018-11-26T00:06:05.848Z,4.34
2018-11-26T00:06:10.165Z,4.35
2018-11-26T00:06:14.387Z,4.35
2018-11-26T00:06:18.700Z,4.35
2018-11-26T00:06:23.014Z,4.34
2018-11-26T00:06:27.326Z,4.34
2018-11-26T00:06:31.632Z,4.34
2018-11-26T00:06:35.934Z,4.34
2018-11-26T00:06:40.245Z,4.35
2018-11-26T00:06:44.551Z,4.34
2018-11-26T00:06:48.861Z,4.35
2018-11-26T00:06:53.190Z,4.35
2018-11-26T00:06:57.494Z,4.35
2018-11-26T00:07:01.805Z,4.35
2018-11-26T00:07:06.115Z,4.35
2018-11-26T00:07:10.429Z,4.35
2018-11-26T00:07:14.641Z,4.35
2018-11-26T00:07:18.943Z,4.36
2018-11-26T00:07:23.250Z,4.35
2018-11-26T00:07:27.558Z,4.35
2018-11-26T00:07:31.870Z,4.36
2018-11-26T00:07:36.182Z,4.36
2018-11-26T00:07:40.400Z,4.36
2018-11-26T00:07:44.711Z,4.37
2018-11-26T00:07:49.022Z,4.36
2018-11-26T00:07:53.331Z,4.36
2018-11-26T00:07:57.641Z,4.35
2018-11-26T00:08:01.968Z,4.35
2018-11-26T00:08:06.183Z,4.36
2018-11-26T00:08:10.490Z,4.35
2018-11-26T00:08:14.723Z,4.35
2018-11-26T00:08:19.029Z,4.35
2018-11-26T00:08:23.332Z,4.36
2018-11-26T00:08:27.639Z,4.37
2018-11-26T00:08:31.842Z,4.36
2018-11-26T00:08:36.145Z,4.36
2018-11-26T00:08:40.449Z,4.36
2018-11-26T00:08:44.754Z,4.36
2018-11-26T00:08:49.110Z,4.35
2018-11-26T00:08:53.412Z,4.35
2018-11-26T00:08:57.721Z,4.35
2018-11-26T00:09:02.068Z,4.35
2018-11-26T00:09:06.383Z,4.35
2018-11-26T00:09:10.692Z,4.35
2018-11-26T00:09:14.995Z,4.35
2018-11-26T00:09:19.309Z,4.35
2018-11-26T00:09:23.615Z,4.35
2018-11-26T00:09:27.920Z,4.35
2018-11-26T00:09:32.234Z,4.34
2018-11-26T00:09:36.541Z,4.34
2018-11-26T00:09:40.849Z,4.34
2018-11-26T00:09:45.153Z,4.35
2018-11-26T00:09:49.459Z,4.34
2018-11-26T00:09:53.665Z,4.33
2018-11-26T00:09:57.967Z,4.33
2018-11-26T00:10:02.283Z,4.33
2018-11-26T00:10:06.597Z,4.32
2018-11-26T00:10:10.905Z,4.33
2018-11-26T00:10:15.214Z,4.33
2018-11-26T00:10:19.528Z,4.33
2018-11-26T00:10:23.840Z,4.34
2018-11-26T00:10:28.145Z,4.34
2018-11-26T00:10:32.352Z,4.33
2018-11-26T00:10:36.702Z,4.34
2018-11-26T00:10:41.004Z,4.33
2018-11-26T00:10:45.218Z,4.33
2018-11-26T00:10:49.528Z,4.33
2018-11-26T00:10:53.837Z,4.33
2018-11-26T00:10:58.051Z,4.33
2018-11-26T00:11:02.361Z,4.33
2018-11-26T00:11:06.667Z,4.33
2018-11-26T00:11:10.975Z,4.33
2018-11-26T00:11:15.296Z,4.33
2018-11-26T00:11:19.607Z,4.33
2018-11-26T00:11:23.924Z,4.32
2018-11-26T00:11:28.228Z,4.33
2018-11-26T00:11:32.543Z,4.33
2018-11-26T00:11:36.859Z,4.33
2018-11-26T00:11:41.160Z,4.33
2018-11-26T00:11:45.475Z,4.32
2018-11-26T00:11:49.772Z,4.33
2018-11-26T00:11:54.073Z,4.32
2018-11-26T00:11:58.380Z,4.33
2018-11-26T00:12:02.585Z,4.32
2018-11-26T00:12:06.890Z,4.32
2018-11-26T00:12:11.205Z,4.32
2018-11-26T00:12:15.520Z,4.32
2018-11-26T00:12:19.862Z,4.32
2018-11-26T00:12:24.169Z,4.32
2018-11-26T00:12:28.471Z,4.32
2018-11-26T00:12:32.780Z,4.31
2018-11-26T00:12:37.085Z,4.32
2018-11-26T00:12:41.386Z,4.31
2018-11-26T00:12:45.691Z,4.31
2018-11-26T00:12:49.989Z,4.32
2018-11-26T00:12:54.304Z,4.32
2018-11-26T00:12:58.662Z,4.32
2018-11-26T00:13:02.967Z,4.31
2018-11-26T00:13:07.353Z,4.31
2018-11-26T00:13:11.660Z,4.31
2018-11-26T00:13:15.964Z,4.3
2018-11-26T00:13:20.267Z,4.31
2018-11-26T00:13:24.598Z,4.3
2018-11-26T00:13:28.916Z,4.29
2018-11-26T00:13:33.249Z,4.3
2018-11-26T00:13:37.552Z,4.3
2018-11-26T00:13:41.860Z,4.3
2018-11-26T00:13:46.172Z,4.3
2018-11-26T00:13:50.479Z,4.29
2018-11-26T00:13:54.785Z,4.3
2018-11-26T00:13:59.091Z,4.29
2018-11-26T00:14:03.550Z,4.29
2018-11-26T00:14:07.864Z,4.3
2018-11-26T00:14:12.166Z,4.3
2018-11-26T00:14:16.474Z,4.3
2018-11-26T00:14:20.785Z,4.29
2018-11-26T00:14:25.095Z,4.3
2018-11-26T00:14:29.413Z,4.29
2018-11-26T00:14:33.717Z,4.3
2018-11-26T00:14:38.022Z,4.29
2018-11-26T00:14:42.330Z,4.31
2018-11-26T00:14:46.634Z,4.31
2018-11-26T00:14:50.983Z,4.31
2018-11-26T00:14:55.296Z,4.3
2018-11-26T00:14:59.600Z,4.31
2018-11-26T00:15:04.111Z,4.31
2018-11-26T00:15:08.324Z,4.3
2018-11-26T00:15:12.529Z,4.3
2018-11-26T00:15:16.838Z,4.3
2018-11-26T00:15:21.156Z,4.31
2018-11-26T00:15:25.492Z,4.31
2018-11-26T00:15:29.804Z,4.31
2018-11-26T00:15:34.113Z,4.32
2018-11-26T00:15:38.407Z,4.31
2018-11-26T00:15:42.712Z,4.31
2018-11-26T00:15:47.029Z,4.32
2018-11-26T00:15:51.359Z,4.31
2018-11-26T00:15:55.672Z,4.31
2018-11-26T00:15:59.979Z,4.32
2018-11-26T00:16:04.337Z,4.32
2018-11-26T00:16:08.643Z,4.31
2018-11-26T00:16:12.937Z,4.32
2018-11-26T00:16:17.241Z,4.32
2018-11-26T00:16:21.552Z,4.31
2018-11-26T00:16:25.854Z,4.32
2018-11-26T00:16:30.167Z,4.32
2018-11-26T00:16:34.477Z,4.32
2018-11-26T00:16:38.791Z,4.31
2018-11-26T00:16:43.101Z,4.31
2018-11-26T00:16:47.410Z,4.32
2018-11-26T00:16:51.715Z,4.32
2018-11-26T00:16:56.028Z,4.32
2018-11-26T00:17:00.233Z,4.32
2018-11-26T00:17:04.689Z,4.32
2018-11-26T00:17:08.994Z,4.32
2018-11-26T00:17:13.300Z,4.33
2018-11-26T00:17:17.613Z,4.32
2018-11-26T00:17:21.922Z,4.31
2018-11-26T00:17:26.232Z,4.32
2018-11-26T00:17:30.551Z,4.32
2018-11-26T00:17:34.856Z,4.31
2018-11-26T00:17:39.164Z,4.32
2018-11-26T00:17:43.470Z,4.32
2018-11-26T00:17:47.785Z,4.31
2018-11-26T00:17:52.101Z,4.32
2018-11-26T00:17:56.449Z,4.3
2018-11-26T00:18:00.779Z,4.32
2018-11-26T00:18:05.092Z,4.29
2018-11-26T00:18:09.307Z,4.31
2018-11-26T00:18:13.616Z,4.3
2018-11-26T00:18:17.968Z,4.31
2018-11-26T00:18:22.279Z,4.3
2018-11-26T00:18:26.595Z,4.3
2018-11-26T00:18:30.901Z,4.3
2018-11-26T00:18:35.210Z,4.3
2018-11-26T00:18:39.520Z,4.3
2018-11-26T00:18:43.837Z,4.3
2018-11-26T00:18:48.146Z,4.3
2018-11-26T00:18:52.363Z,4.29
2018-11-26T00:18:56.670Z,4.29
2018-11-26T00:19:00.985Z,4.3
2018-11-26T00:19:05.334Z,4.29
2018-11-26T00:19:09.650Z,4.29
2018-11-26T00:19:13.959Z,4.29
2018-11-26T00:19:18.267Z,4.29
2018-11-26T00:19:22.575Z,4.3
2018-11-26T00:19:26.879Z,4.3
2018-11-26T00:19:31.191Z,4.29
2018-11-26T00:19:35.496Z,4.29
2018-11-26T00:19:39.806Z,4.29
2018-11-26T00:19:44.128Z,4.29
2018-11-26T00:19:48.431Z,4.29
2018-11-26T00:19:52.735Z,4.29
2018-11-26T00:19:57.035Z,4.29
2018-11-26T00:20:01.352Z,4.29
2018-11-26T00:20:05.678Z,4.28
2018-11-26T00:20:09.982Z,4.29
2018-11-26T00:20:14.298Z,4.29
2018-11-26T00:20:18.613Z,4.3
2018-11-26T00:20:22.950Z,4.29
2018-11-26T00:20:27.257Z,4.29
2018-11-26T00:20:31.571Z,4.28
2018-11-26T00:20:35.883Z,4.28
2018-11-26T00:20:40.190Z,4.28
2018-11-26T00:20:44.503Z,4.29
2018-11-26T00:20:48.728Z,4.29
2018-11-26T00:20:53.030Z,4.29
2018-11-26T00:20:57.338Z,4.29
2018-11-26T00:21:01.654Z,4.28
2018-11-26T00:21:05.975Z,4.28
2018-11-26T00:21:10.284Z,4.29
2018-11-26T00:21:14.591Z,4.29
2018-11-26T00:21:18.933Z,4.28
2018-11-26T00:21:23.240Z,4.28
2018-11-26T00:21:27.540Z,4.28
2018-11-26T00:21:31.851Z,4.28
2018-11-26T00:21:36.160Z,4.29
2018-11-26T00:21:40.368Z,4.28
2018-11-26T00:21:44.676Z,4.29
2018-11-26T00:21:48.984Z,4.28
2018-11-26T00:21:53.296Z,4.28
2018-11-26T00:21:57.606Z,4.28
2018-11-26T00:22:01.921Z,4.28
2018-11-26T00:22:06.228Z,4.28
2018-11-26T00:22:10.533Z,4.27
2018-11-26T00:22:14.843Z,4.28
2018-11-26T00:22:19.151Z,4.28
2018-11-26T00:22:23.459Z,4.28
2018-11-26T00:22:27.784Z,4.27
2018-11-26T00:22:32.090Z,4.28
2018-11-26T00:22:36.407Z,4.28
2018-11-26T00:22:40.720Z,4.28
2018-11-26T00:22:44.926Z,4.28
2018-11-26T00:22:49.238Z,4.28
2018-11-26T00:22:53.550Z,4.29
2018-11-26T00:22:57.857Z,4.28
2018-11-26T00:23:02.312Z,4.28
2018-11-26T00:23:06.524Z,4.28
2018-11-26T00:23:10.825Z,4.28
2018-11-26T00:23:15.150Z,4.28
2018-11-26T00:23:19.455Z,4.28
2018-11-26T00:23:23.762Z,4.28
2018-11-26T00:23:28.072Z,4.27
2018-11-26T00:23:32.381Z,4.27
2018-11-26T00:23:36.683Z,4.27
2018-11-26T00:23:40.987Z,4.28
2018-11-26T00:23:45.288Z,4.28
2018-11-26T00:23:49.598Z,4.27
2018-11-26T00:23:53.909Z,4.27
2018-11-26T00:23:58.228Z,4.27
2018-11-26T00:24:02.535Z,4.28
2018-11-26T00:24:06.852Z,4.28
2018-11-26T00:24:11.167Z,4.28
2018-11-26T00:24:15.476Z,4.27
2018-11-26T00:24:19.795Z,4.28
2018-11-26T00:24:24.129Z,4.28
2018-11-26T00:24:28.438Z,4.27
2018-11-26T00:24:32.756Z,4.28
2018-11-26T00:24:37.065Z,4.27
2018-11-26T00:24:41.369Z,4.28
2018-11-26T00:24:45.571Z,4.28
2018-11-26T00:24:49.876Z,4.28
2018-11-26T00:24:54.192Z,4.28
2018-11-26T00:24:58.520Z,4.28
2018-11-26T00:25:02.882Z,4.28
2018-11-26T00:25:07.093Z,4.27
2018-11-26T00:25:11.403Z,4.27
2018-11-26T00:25:15.716Z,4.28
2018-11-26T00:25:20.031Z,4.27
2018-11-26T00:25:24.350Z,4.28
2018-11-26T00:25:28.669Z,4.27
2018-11-26T00:25:32.986Z,4.27
2018-11-26T00:25:37.294Z,4.27
2018-11-26T00:25:41.608Z,4.27
2018-11-26T00:25:45.916Z,4.27
2018-11-26T00:25:50.233Z,4.27
2018-11-26T00:25:54.535Z,4.26
2018-11-26T00:25:58.840Z,4.27
2018-11-26T00:26:03.157Z,4.26
2018-11-26T00:26:07.469Z,4.27
2018-11-26T00:26:11.772Z,4.26
2018-11-26T00:26:16.074Z,4.25
2018-11-26T00:26:20.380Z,4.27
2018-11-26T00:26:24.698Z,4.27
2018-11-26T00:26:29.011Z,4.26
2018-11-26T00:26:33.317Z,4.26
2018-11-26T00:26:37.630Z,4.26
2018-11-26T00:26:41.944Z,4.27
2018-11-26T00:26:46.265Z,4.26
2018-11-26T00:26:50.625Z,4.26
2018-11-26T00:26:54.948Z,4.26
2018-11-26T00:26:59.259Z,4.26
2018-11-26T00:27:03.575Z,4.26
2018-11-26T00:27:07.898Z,4.27
2018-11-26T00:27:12.209Z,4.26
2018-11-26T00:27:16.525Z,4.26
2018-11-26T00:27:20.829Z,4.25
2018-11-26T00:27:25.145Z,4.25
2018-11-26T00:27:29.448Z,4.25
2018-11-26T00:27:33.753Z,4.25
2018-11-26T00:27:38.074Z,4.25
2018-11-26T00:27:42.376Z,4.26
2018-11-26T00:27:46.678Z,4.24
2018-11-26T00:27:50.986Z,4.25
2018-11-26T00:27:55.304Z,4.25
2018-11-26T00:27:59.619Z,4.24
2018-11-26T00:28:03.931Z,4.25
2018-11-26T00:28:08.242Z,4.25
2018-11-26T00:28:12.549Z,4.25
2018-11-26T00:28:16.855Z,4.24
2018-11-26T00:28:21.167Z,4.24
2018-11-26T00:28:25.483Z,4.23
2018-11-26T00:28:29.795Z,4.24
2018-11-26T00:28:34.102Z,4.24
2018-11-26T00:28:38.409Z,4.24
2018-11-26T00:28:42.716Z,4.24
2018-11-26T00:28:47.881Z,4.24
2018-11-26T00:28:52.195Z,4.23
2018-11-26T00:28:56.517Z,4.24
2018-11-26T00:29:00.821Z,4.24
2018-11-26T00:29:05.127Z,4.23
2018-11-26T00:29:09.431Z,4.23
2018-11-26T00:29:13.777Z,4.23
2018-11-26T00:29:18.093Z,4.23
2018-11-26T00:29:22.461Z,4.23
2018-11-26T00:29:26.765Z,4.24
2018-11-26T00:29:31.068Z,4.23
2018-11-26T00:29:35.371Z,4.24
2018-11-26T00:29:39.584Z,4.23
2018-11-26T00:29:43.916Z,4.23
2018-11-26T00:29:48.224Z,4.23
2018-11-26T00:29:52.526Z,4.23
2018-11-26T00:29:56.828Z,4.23
2018-11-26T00:30:01.038Z,4.23
2018-11-26T00:30:05.350Z,4.23
2018-11-26T00:30:09.663Z,4.23
2018-11-26T00:30:13.972Z,4.24
2018-11-26T00:30:18.281Z,4.23
2018-11-26T00:30:22.591Z,4.23
2018-11-26T00:30:26.902Z,4.23
2018-11-26T00:30:31.261Z,4.22
2018-11-26T00:30:35.483Z,4.23
2018-11-26T00:30:39.802Z,4.23
2018-11-26T00:30:44.132Z,4.23
2018-11-26T00:30:48.450Z,4.22
2018-11-26T00:30:52.759Z,4.22
2018-11-26T00:30:57.064Z,4.23
2018-11-26T00:31:01.378Z,4.23
2018-11-26T00:31:05.700Z,4.22
2018-11-26T00:31:10.002Z,4.22
2018-11-26T00:31:14.299Z,4.23
2018-11-26T00:31:18.624Z,4.23
2018-11-26T00:31:22.944Z,4.22
2018-11-26T00:31:27.248Z,4.22
2018-11-26T00:31:31.559Z,4.23
2018-11-26T00:31:35.864Z,4.22
2018-11-26T00:31:40.171Z,4.21
2018-11-26T00:31:44.475Z,4.22
2018-11-26T00:31:48.783Z,4.22
2018-11-26T00:31:52.911Z,4.22
2018-11-26T00:31:57.212Z,4.22
2018-11-26T00:32:01.519Z,4.22
2018-11-26T00:32:05.839Z,4.22
2018-11-26T00:32:10.155Z,4.21
2018-11-26T00:32:14.463Z,4.22
2018-11-26T00:32:18.676Z,4.22
2018-11-26T00:32:22.984Z,4.22
2018-11-26T00:32:27.189Z,4.22
2018-11-26T00:32:31.496Z,4.22
2018-11-26T00:32:35.702Z,4.21
2018-11-26T00:32:40.011Z,4.22
2018-11-26T00:32:44.222Z,4.22
2018-11-26T00:32:48.437Z,4.22
2018-11-26T00:32:52.752Z,4.22
2018-11-26T00:32:57.059Z,4.22
2018-11-26T00:33:01.368Z,4.22
2018-11-26T00:33:05.683Z,4.23
2018-11-26T00:33:09.894Z,4.23
2018-11-26T00:33:14.199Z,4.22
2018-11-26T00:33:18.518Z,4.23
2018-11-26T00:33:22.824Z,4.23
2018-11-26T00:33:27.130Z,4.23
2018-11-26T00:33:31.444Z,4.23
2018-11-26T00:33:35.744Z,4.24
2018-11-26T00:33:40.065Z,4.23
2018-11-26T00:33:44.372Z,4.23
2018-11-26T00:33:48.691Z,4.23
2018-11-26T00:33:53.002Z,4.22
2018-11-26T00:33:57.308Z,4.23
2018-11-26T00:34:01.612Z,4.23
2018-11-26T00:34:05.911Z,4.23
2018-11-26T00:34:10.218Z,4.24
2018-11-26T00:34:14.526Z,4.24
2018-11-26T00:34:18.844Z,4.23
2018-11-26T00:34:23.156Z,4.24
2018-11-26T00:34:27.470Z,4.24
2018-11-26T00:34:31.775Z,4.24
2018-11-26T00:34:36.085Z,4.24
2018-11-26T00:34:40.399Z,4.24
2018-11-26T00:34:44.613Z,4.24
2018-11-26T00:34:48.914Z,4.24
2018-11-26T00:34:53.225Z,4.24
2018-11-26T00:34:57.527Z,4.24
2018-11-26T00:35:01.828Z,4.24
2018-11-26T00:35:06.132Z,4.25
2018-11-26T00:35:10.431Z,4.25
2018-11-26T00:35:14.741Z,4.24
2018-11-26T00:35:18.977Z,4.24
2018-11-26T00:35:23.195Z,4.24
2018-11-26T00:35:27.506Z,4.25
2018-11-26T00:35:31.816Z,4.24
2018-11-26T00:35:36.120Z,4.24
2018-11-26T00:35:40.423Z,4.25
2018-11-26T00:35:44.742Z,4.25
2018-11-26T00:35:49.053Z,4.24
2018-11-26T00:35:53.359Z,4.25
2018-11-26T00:35:57.703Z,4.25
2018-11-26T00:36:02.017Z,4.25
2018-11-26T00:36:06.343Z,4.24
2018-11-26T00:36:10.660Z,4.25
2018-11-26T00:36:14.967Z,4.25
2018-11-26T00:36:19.274Z,4.25
2018-11-26T00:36:23.577Z,4.25
2018-11-26T00:36:27.889Z,4.25
2018-11-26T00:36:32.197Z,4.25
2018-11-26T00:36:36.506Z,4.25
2018-11-26T00:36:40.810Z,4.25
2018-11-26T00:36:45.114Z,4.25
2018-11-26T00:36:49.425Z,4.25
2018-11-26T00:36:53.737Z,4.25
2018-11-26T00:36:58.067Z,4.25
2018-11-26T00:37:02.381Z,4.26
2018-11-26T00:37:06.593Z,4.26
2018-11-26T00:37:10.902Z,4.25
2018-11-26T00:37:15.214Z,4.25
2018-11-26T00:37:19.523Z,4.25
2018-11-26T00:37:23.852Z,4.26
2018-11-26T00:37:28.159Z,4.26
2018-11-26T00:37:32.466Z,4.25
2018-11-26T00:37:36.781Z,4.25
2018-11-26T00:37:41.080Z,4.25
2018-11-26T00:37:45.382Z,4.25
2018-11-26T00:37:49.692Z,4.25
2018-11-26T00:37:53.998Z,4.25
2018-11-26T00:37:58.305Z,4.24
2018-11-26T00:38:02.613Z,4.25
2018-11-26T00:38:06.919Z,4.25
2018-11-26T00:38:11.224Z,4.25
2018-11-26T00:38:15.527Z,4.25
2018-11-26T00:38:19.826Z,4.25
2018-11-26T00:38:24.129Z,4.25
2018-11-26T00:38:28.429Z,4.25
2018-11-26T00:38:32.741Z,4.25
2018-11-26T00:38:37.058Z,4.24
2018-11-26T00:38:41.362Z,4.24
2018-11-26T00:38:45.671Z,4.25
2018-11-26T00:38:49.983Z,4.25
2018-11-26T00:38:54.326Z,4.25
2018-11-26T00:38:58.634Z,4.24
2018-11-26T00:39:02.991Z,4.24
2018-11-26T00:39:07.295Z,4.25
2018-11-26T00:39:11.608Z,4.25
2018-11-26T00:39:15.920Z,4.25
2018-11-26T00:39:20.231Z,4.25
2018-11-26T00:39:24.533Z,4.25
2018-11-26T00:39:28.838Z,4.25
2018-11-26T00:39:33.143Z,4.25
2018-11-26T00:39:37.447Z,4.24
2018-11-26T00:39:41.754Z,4.25
2018-11-26T00:39:46.062Z,4.25
2018-11-26T00:39:50.366Z,4.25
2018-11-26T00:39:54.678Z,4.25
2018-11-26T00:39:58.883Z,4.24
2018-11-26T00:40:03.189Z,4.25
2018-11-26T00:40:07.303Z,4.25
2018-11-26T00:40:11.614Z,4.24
2018-11-26T00:40:15.927Z,4.25
2018-11-26T00:40:20.131Z,4.25
2018-11-26T00:40:24.436Z,4.25
2018-11-26T00:40:28.749Z,4.25
2018-11-26T00:40:33.060Z,4.26
2018-11-26T00:40:37.366Z,4.25
2018-11-26T00:40:41.670Z,4.26
2018-11-26T00:40:45.981Z,4.25
2018-11-26T00:40:50.345Z,4.26
2018-11-26T00:40:54.646Z,4.25
2018-11-26T00:40:58.944Z,4.26
2018-11-26T00:41:03.265Z,4.26
2018-11-26T00:41:07.575Z,4.26
2018-11-26T00:41:11.884Z,4.26
2018-11-26T00:41:16.188Z,4.25
2018-11-26T00:41:20.490Z,4.26
2018-11-26T00:41:24.805Z,4.26
2018-11-26T00:41:29.110Z,4.26
2018-11-26T00:41:33.424Z,4.26
2018-11-26T00:41:37.728Z,4.26
2018-11-26T00:41:42.046Z,4.25
2018-11-26T00:41:46.270Z,4.26
2018-11-26T00:41:50.573Z,4.26
2018-11-26T00:41:54.779Z,4.27
2018-11-26T00:41:59.084Z,4.27
2018-11-26T00:42:03.396Z,4.27
2018-11-26T00:42:07.730Z,4.26
2018-11-26T00:42:12.052Z,4.27
2018-11-26T00:42:16.361Z,4.27
2018-11-26T00:42:20.664Z,4.27
2018-11-26T00:42:24.972Z,4.28
2018-11-26T00:42:29.307Z,4.27
2018-11-26T00:42:33.624Z,4.27
2018-11-26T00:42:37.940Z,4.27
2018-11-26T00:42:42.248Z,4.28
2018-11-26T00:42:46.555Z,4.28
2018-11-26T00:42:50.759Z,4.27
2018-11-26T00:42:55.067Z,4.27
2018-11-26T00:42:59.379Z,4.28
2018-11-26T00:43:03.684Z,4.28
2018-11-26T00:43:08.055Z,4.27
2018-11-26T00:43:12.371Z,4.28
2018-11-26T00:43:16.675Z,4.28
2018-11-26T00:43:20.982Z,4.28
2018-11-26T00:43:25.284Z,4.28
2018-11-26T00:43:29.648Z,4.28
2018-11-26T00:43:33.962Z,4.27
2018-11-26T00:43:38.266Z,4.28
2018-11-26T00:43:42.487Z,4.28
2018-11-26T00:43:46.809Z,4.28
2018-11-26T00:43:51.119Z,4.28
2018-11-26T00:43:55.433Z,4.28
2018-11-26T00:43:59.732Z,4.28
2018-11-26T00:44:04.098Z,4.29
2018-11-26T00:44:08.409Z,4.29
2018-11-26T00:44:12.717Z,4.28
2018-11-26T00:44:17.024Z,4.29
2018-11-26T00:44:21.230Z,4.29
2018-11-26T00:44:25.534Z,4.29
2018-11-26T00:44:29.842Z,4.29
2018-11-26T00:44:34.143Z,4.28
2018-11-26T00:44:38.453Z,4.29
2018-11-26T00:44:42.757Z,4.29
2018-11-26T00:44:47.064Z,4.29
2018-11-26T00:44:51.366Z,4.29
2018-11-26T00:44:55.671Z,4.29
2018-11-26T00:44:59.976Z,4.28
2018-11-26T00:45:04.392Z,4.29
2018-11-26T00:45:08.510Z,4.29
2018-11-26T00:45:12.810Z,4.29
2018-11-26T00:45:17.120Z,4.29
2018-11-26T00:45:21.432Z,4.28
2018-11-26T00:45:25.743Z,4.28
2018-11-26T00:45:30.048Z,4.29
2018-11-26T00:45:34.357Z,4.29
2018-11-26T00:45:38.667Z,4.29
2018-11-26T00:45:42.981Z,4.29
2018-11-26T00:45:47.294Z,4.29
2018-11-26T00:45:51.606Z,4.29
2018-11-26T00:45:55.916Z,4.29
2018-11-26T00:46:00.231Z,4.28
2018-11-26T00:46:04.440Z,4.29
2018-11-26T00:46:08.752Z,4.29
2018-11-26T00:46:13.050Z,4.28
2018-11-26T00:46:17.355Z,4.29
2018-11-26T00:46:22.210Z,4.29
2018-11-26T00:46:26.519Z,4.28
2018-11-26T00:46:30.826Z,4.28
2018-11-26T00:46:35.134Z,4.27
2018-11-26T00:46:39.436Z,4.27
2018-11-26T00:46:43.738Z,4.28
2018-11-26T00:46:48.040Z,4.27
2018-11-26T00:46:52.343Z,4.28
2018-11-26T00:46:56.656Z,4.28
2018-11-26T00:47:00.966Z,4.27
2018-11-26T00:47:05.273Z,4.28
2018-11-26T00:47:09.577Z,4.27
2018-11-26T00:47:13.886Z,4.27
2018-11-26T00:47:18.196Z,4.28
2018-11-26T00:47:22.507Z,4.27
2018-11-26T00:47:26.813Z,4.28
2018-11-26T00:47:31.122Z,4.27
2018-11-26T00:47:35.422Z,4.27
2018-11-26T00:47:39.727Z,4.27
2018-11-26T00:47:44.068Z,4.28
2018-11-26T00:47:48.295Z,4.27
2018-11-26T00:47:52.612Z,4.27
2018-11-26T00:47:56.830Z,4.27
2018-11-26T00:48:01.136Z,4.27
2018-11-26T00:48:05.439Z,4.28
2018-11-26T00:48:09.744Z,4.28
2018-11-26T00:48:14.055Z,4.28
2018-11-26T00:48:18.361Z,4.27
2018-11-26T00:48:22.667Z,4.28
2018-11-26T00:48:27.000Z,4.27
2018-11-26T00:48:31.341Z,4.27
2018-11-26T00:48:35.647Z,4.27
2018-11-26T00:48:39.973Z,4.28
2018-11-26T00:48:44.275Z,4.27
2018-11-26T00:48:48.586Z,4.28
2018-11-26T00:48:52.893Z,4.27
2018-11-26T00:48:57.198Z,4.28
2018-11-26T00:49:01.510Z,4.28
2018-11-26T00:49:05.866Z,4.27
2018-11-26T00:49:10.176Z,4.28
2018-11-26T00:49:14.474Z,4.27
2018-11-26T00:49:18.773Z,4.27
2018-11-26T00:49:23.097Z,4.27
2018-11-26T00:49:27.405Z,4.27
2018-11-26T00:49:31.721Z,4.28
2018-11-26T00:49:36.039Z,4.28
2018-11-26T00:49:40.344Z,4.27
2018-11-26T00:49:44.664Z,4.28
2018-11-26T00:49:48.977Z,4.28
2018-11-26T00:49:53.280Z,4.28
2018-11-26T00:49:57.588Z,4.27
2018-11-26T00:50:01.935Z,4.27
2018-11-26T00:50:06.244Z,4.28
2018-11-26T00:50:10.559Z,4.27
2018-11-26T00:50:14.873Z,4.28
2018-11-26T00:50:19.222Z,4.27
2018-11-26T00:50:23.532Z,4.28
2018-11-26T00:50:27.872Z,4.28
2018-11-26T00:50:32.189Z,4.28
2018-11-26T00:50:36.506Z,4.28
2018-11-26T00:50:40.822Z,4.28
2018-11-26T00:50:45.128Z,4.28
2018-11-26T00:50:49.434Z,4.29
2018-11-26T00:50:53.741Z,4.29
2018-11-26T00:50:58.077Z,4.29
2018-11-26T00:51:02.382Z,4.28
2018-11-26T00:51:06.686Z,4.28
2018-11-26T00:51:10.992Z,4.28
2018-11-26T00:51:15.312Z,4.28
2018-11-26T00:51:19.625Z,4.28
2018-11-26T00:51:23.928Z,4.29
2018-11-26T00:51:28.258Z,4.28
2018-11-26T00:51:32.580Z,4.28
2018-11-26T00:51:36.883Z,4.28
2018-11-26T00:51:41.190Z,4.28
2018-11-26T00:51:45.499Z,4.28
2018-11-26T00:51:49.809Z,4.29
2018-11-26T00:51:54.110Z,4.28
2018-11-26T00:51:58.416Z,4.29
2018-11-26T00:52:02.721Z,4.28
2018-11-26T00:52:07.030Z,4.28
2018-11-26T00:52:11.334Z,4.28
2018-11-26T00:52:15.659Z,4.28
2018-11-26T00:52:19.969Z,4.28
2018-11-26T00:52:24.272Z,4.29
2018-11-26T00:52:28.636Z,4.29
2018-11-26T00:52:32.950Z,4.28
2018-11-26T00:52:37.267Z,4.29
2018-11-26T00:52:41.578Z,4.29
2018-11-26T00:52:45.880Z,4.3
2018-11-26T00:52:50.189Z,4.29
2018-11-26T00:52:54.398Z,4.29
2018-11-26T00:52:58.696Z,4.28
2018-11-26T00:53:03.015Z,4.29
2018-11-26T00:53:07.321Z,4.29
2018-11-26T00:53:11.632Z,4.29
2018-11-26T00:53:15.944Z,4.3
2018-11-26T00:53:20.244Z,4.29
2018-11-26T00:53:24.557Z,4.29
2018-11-26T00:53:28.862Z,4.29
2018-11-26T00:53:33.179Z,4.3
2018-11-26T00:53:37.493Z,4.29
2018-11-26T00:53:41.812Z,4.3
2018-11-26T00:53:46.115Z,4.3
2018-11-26T00:53:50.423Z,4.3
2018-11-26T00:53:54.724Z,4.3
2018-11-26T00:53:59.031Z,4.29
2018-11-26T00:54:03.388Z,4.29
2018-11-26T00:54:07.611Z,4.3
2018-11-26T00:54:11.915Z,4.32
2018-11-26T00:54:16.217Z,4.3
2018-11-26T00:54:20.519Z,4.31
2018-11-26T00:54:24.824Z,4.3
2018-11-26T00:54:29.134Z,4.3
2018-11-26T00:54:33.439Z,4.3
2018-11-26T00:54:37.849Z,4.3
2018-11-26T00:54:42.074Z,4.31
2018-11-26T00:54:46.381Z,4.3
2018-11-26T00:54:50.728Z,4.31
2018-11-26T00:54:55.036Z,4.3
2018-11-26T00:54:59.338Z,4.3
2018-11-26T00:55:03.658Z,4.31
2018-11-26T00:55:07.970Z,4.29
2018-11-26T00:55:12.276Z,4.3
2018-11-26T00:55:16.594Z,4.3
2018-11-26T00:55:20.897Z,4.31
2018-11-26T00:55:25.113Z,4.3
2018-11-26T00:55:29.427Z,4.3
2018-11-26T00:55:33.737Z,4.3
2018-11-26T00:55:38.060Z,4.31
2018-11-26T00:55:42.367Z,4.31
2018-11-26T00:55:46.675Z,4.31
2018-11-26T00:55:50.973Z,4.3
2018-11-26T00:55:55.278Z,4.3
2018-11-26T00:55:59.582Z,4.31
2018-11-26T00:56:04.049Z,4.3
2018-11-26T00:56:08.260Z,4.31
2018-11-26T00:56:12.565Z,4.3
2018-11-26T00:56:16.868Z,4.3
2018-11-26T00:56:21.178Z,4.3
2018-11-26T00:56:25.487Z,4.31
2018-11-26T00:56:29.804Z,4.29
2018-11-26T00:56:34.113Z,4.31
2018-11-26T00:56:38.416Z,4.32
2018-11-26T00:56:42.736Z,4.29
2018-11-26T00:56:46.945Z,4.31
2018-11-26T00:56:51.250Z,4.31
2018-11-26T00:56:55.549Z,4.31
2018-11-26T00:56:59.856Z,4.31
2018-11-26T00:57:04.169Z,4.32
2018-11-26T00:57:08.469Z,4.3
2018-11-26T00:57:12.780Z,4.32
2018-11-26T00:57:17.102Z,4.32
2018-11-26T00:57:21.311Z,4.31
2018-11-26T00:57:25.615Z,4.32
2018-11-26T00:57:29.919Z,4.3
2018-11-26T00:57:34.231Z,4.31